createdAt,value
2017-06-22T00:01:59.946Z,21.98
2017-06-22T00:04:29.000Z,21.96
2017-06-22T00:06:58.073Z,21.95
2017-06-22T00:09:27.144Z,21.97
2017-06-22T00:11:57.364Z,21.93
2017-06-22T00:14:26.387Z,21.89
2017-06-22T00:16:55.476Z,21.84
2017-06-22T00:19:24.531Z,21.84
2017-06-22T00:21:53.620Z,21.85
2017-06-22T00:24:22.675Z,21.86
2017-06-22T00:26:52.229Z,21.87
2017-06-22T00:29:21.309Z,21.89
2017-06-22T00:31:50.365Z,21.86
2017-06-22T00:34:19.486Z,21.86
2017-06-22T00:36:48.541Z,21.83
2017-06-22T00:39:17.607Z,21.82
2017-06-22T00:41:47.461Z,21.79
2017-06-22T00:44:16.712Z,21.77
2017-06-22T00:46:45.787Z,21.72
2017-06-22T00:49:14.887Z,21.74
2017-06-22T00:51:43.956Z,21.75
2017-06-22T00:54:13.044Z,21.72
2017-06-22T00:56:42.088Z,21.69
2017-06-22T00:59:11.182Z,21.72
2017-06-22T01:01:40.520Z,21.75
2017-06-22T01:04:09.589Z,21.75
2017-06-22T01:06:38.661Z,21.76
2017-06-22T01:09:07.740Z,21.78
2017-06-22T01:11:36.820Z,21.75
2017-06-22T01:14:05.865Z,21.72
2017-06-22T01:16:34.923Z,21.77
2017-06-22T01:19:04.028Z,21.77
2017-06-22T01:21:33.150Z,21.80
2017-06-22T01:24:02.226Z,21.81
2017-06-22T01:26:31.299Z,21.80
2017-06-22T01:29:00.503Z,21.81
2017-06-22T01:31:29.549Z,21.77
2017-06-22T01:33:59.384Z,21.76
2017-06-22T01:36:28.455Z,21.76
2017-06-22T01:38:58.288Z,21.71
2017-06-22T01:41:27.365Z,21.71
2017-06-22T01:43:57.195Z,21.71
2017-06-22T01:46:26.275Z,21.70
2017-06-22T01:48:56.093Z,21.68
2017-06-22T01:51:25.944Z,21.68
2017-06-22T01:53:55.035Z,21.56
2017-06-22T01:56:24.111Z,21.55
2017-06-22T01:58:53.169Z,21.43
2017-06-22T02:01:22.241Z,21.39
2017-06-22T02:03:51.505Z,21.40
2017-06-22T02:06:20.603Z,21.33
2017-06-22T02:08:49.656Z,21.23
2017-06-22T02:11:19.512Z,21.20
2017-06-22T02:13:48.576Z,21.21
2017-06-22T02:16:18.577Z,21.23
2017-06-22T02:18:47.647Z,21.17
2017-06-22T02:21:16.760Z,21.16
2017-06-22T02:23:45.791Z,21.05
2017-06-22T02:26:14.890Z,21.08
2017-06-22T02:28:44.262Z,21.11
2017-06-22T02:31:13.415Z,21.08
2017-06-22T02:33:42.484Z,21.12
2017-06-22T02:36:11.541Z,21.06
2017-06-22T02:38:40.646Z,20.92
2017-06-22T02:41:09.757Z,20.87
2017-06-22T02:43:38.824Z,20.75
2017-06-22T02:46:07.899Z,20.73
2017-06-22T02:48:36.965Z,20.76
2017-06-22T02:51:06.028Z,20.75
2017-06-22T02:53:35.856Z,20.77
2017-06-22T02:56:05.115Z,20.83
2017-06-22T02:58:34.197Z,20.91
2017-06-22T03:01:03.269Z,20.99
2017-06-22T03:03:32.449Z,21.05
2017-06-22T03:06:01.526Z,21.11
2017-06-22T03:08:31.356Z,21.18
2017-06-22T03:11:00.429Z,21.19
2017-06-22T03:13:30.301Z,21.24
2017-06-22T03:15:59.355Z,21.27
2017-06-22T03:18:28.404Z,21.29
2017-06-22T03:20:57.485Z,21.32
2017-06-22T03:23:26.544Z,21.35
2017-06-22T03:25:55.624Z,21.38
2017-06-22T03:28:25.484Z,21.45
2017-06-22T03:30:54.526Z,21.47
2017-06-22T03:33:24.349Z,21.53
2017-06-22T03:35:53.416Z,21.60
2017-06-22T03:38:22.776Z,21.62
2017-06-22T03:40:51.837Z,21.67
2017-06-22T03:43:21.677Z,21.71
2017-06-22T03:45:50.748Z,21.73
2017-06-22T03:48:19.815Z,21.79
2017-06-22T03:50:48.876Z,21.82
2017-06-22T03:53:17.956Z,21.83
2017-06-22T03:55:47.051Z,21.84
2017-06-22T03:58:16.136Z,21.92
2017-06-22T04:00:45.196Z,21.98
2017-06-22T04:03:14.515Z,22.01
2017-06-22T04:05:43.627Z,22.05
2017-06-22T04:08:12.735Z,22.09
2017-06-22T04:10:41.781Z,22.14
2017-06-22T04:13:10.885Z,22.18
2017-06-22T04:15:39.932Z,22.23
2017-06-22T04:18:09.001Z,22.29
2017-06-22T04:20:38.074Z,22.33
2017-06-22T04:23:07.162Z,22.39
2017-06-22T04:25:36.213Z,22.45
2017-06-22T04:28:05.323Z,22.52
2017-06-22T04:30:34.368Z,22.56
2017-06-22T04:33:03.492Z,22.57
2017-06-22T04:35:32.580Z,22.61
2017-06-22T04:38:01.624Z,22.65
2017-06-22T04:40:30.707Z,22.70
2017-06-22T04:42:59.814Z,22.70
2017-06-22T04:45:28.913Z,22.74
2017-06-22T04:47:57.964Z,22.80
2017-06-22T04:50:27.020Z,22.88
2017-06-22T04:52:56.106Z,22.90
2017-06-22T04:55:25.305Z,22.92
2017-06-22T04:57:54.384Z,22.96
2017-06-22T05:00:23.457Z,23.06
2017-06-22T05:02:52.536Z,23.11
2017-06-22T05:05:21.739Z,23.13
2017-06-22T05:07:50.807Z,23.18
2017-06-22T05:10:19.887Z,23.23
2017-06-22T05:12:49.083Z,23.28
2017-06-22T05:15:18.157Z,23.29
2017-06-22T05:17:47.235Z,23.33
2017-06-22T05:20:16.304Z,23.37
2017-06-22T05:22:45.367Z,23.37
2017-06-22T05:25:14.456Z,23.41
2017-06-22T05:27:43.516Z,23.45
2017-06-22T05:30:12.561Z,23.50
2017-06-22T05:32:41.636Z,23.56
2017-06-22T05:35:10.746Z,23.66
2017-06-22T05:37:39.796Z,23.74
2017-06-22T05:40:08.914Z,23.86
2017-06-22T05:42:37.957Z,23.97
2017-06-22T05:45:07.036Z,24.09
2017-06-22T05:47:36.120Z,24.21
2017-06-22T05:50:05.190Z,24.31
2017-06-22T05:52:34.286Z,24.41
2017-06-22T05:55:03.364Z,24.52
2017-06-22T05:57:32.408Z,24.62
2017-06-22T06:00:01.488Z,24.75
2017-06-22T06:02:30.576Z,24.91
2017-06-22T06:04:59.840Z,25.05
2017-06-22T06:07:28.916Z,25.25
2017-06-22T06:09:57.970Z,25.40
2017-06-22T06:12:27.058Z,25.55
2017-06-22T06:14:56.133Z,25.70
2017-06-22T06:17:25.179Z,25.88
2017-06-22T06:19:54.252Z,25.99
2017-06-22T06:22:23.346Z,26.12
2017-06-22T06:24:52.393Z,26.23
2017-06-22T06:27:21.482Z,26.42
2017-06-22T06:29:50.517Z,26.54
2017-06-22T06:32:19.585Z,26.67
2017-06-22T06:34:48.777Z,26.79
2017-06-22T06:37:17.844Z,26.87
2017-06-22T06:39:46.895Z,27.03
2017-06-22T06:42:15.985Z,27.23
2017-06-22T06:44:45.045Z,27.41
2017-06-22T06:47:14.156Z,27.58
2017-06-22T06:49:43.219Z,27.77
2017-06-22T06:52:12.297Z,27.96
2017-06-22T06:54:41.362Z,28.10
2017-06-22T06:57:10.421Z,28.26
2017-06-22T06:59:39.469Z,28.38
2017-06-22T07:02:08.542Z,28.49
2017-06-22T07:04:37.633Z,28.59
2017-06-22T07:07:06.736Z,28.68
2017-06-22T07:09:35.775Z,28.82
2017-06-22T07:12:04.831Z,29.00
2017-06-22T07:14:33.929Z,29.17
2017-06-22T07:17:03.019Z,29.34
2017-06-22T07:19:32.084Z,29.48
2017-06-22T07:22:01.168Z,29.61
2017-06-22T07:24:30.228Z,29.71
2017-06-22T07:26:59.303Z,29.88
2017-06-22T07:29:28.380Z,30.10
2017-06-22T07:31:57.449Z,30.38
2017-06-22T07:34:26.528Z,30.61
2017-06-22T07:36:55.590Z,30.82
2017-06-22T07:39:24.636Z,31.04
2017-06-22T07:41:53.683Z,31.16
2017-06-22T07:44:22.764Z,31.28
2017-06-22T07:46:51.812Z,31.35
2017-06-22T07:49:20.860Z,31.46
2017-06-22T07:51:49.945Z,31.61
2017-06-22T07:54:19.021Z,31.73
2017-06-22T07:56:48.057Z,31.87
2017-06-22T07:59:17.141Z,32.07
2017-06-22T08:01:46.425Z,32.19
2017-06-22T08:04:15.496Z,32.30
2017-06-22T08:06:44.551Z,32.45
2017-06-22T08:09:13.607Z,32.53
2017-06-22T08:11:42.675Z,32.57
2017-06-22T08:14:11.755Z,32.58
2017-06-22T08:16:40.795Z,32.69
2017-06-22T08:19:09.855Z,32.84
2017-06-22T08:21:38.892Z,32.97
2017-06-22T08:24:08.089Z,33.11
2017-06-22T08:26:37.134Z,33.23
2017-06-22T08:29:06.211Z,33.38
2017-06-22T08:31:35.274Z,33.49
2017-06-22T08:34:04.337Z,33.66
2017-06-22T08:36:33.415Z,33.73
2017-06-22T08:39:02.436Z,33.86
2017-06-22T08:41:31.497Z,33.99
2017-06-22T08:44:00.576Z,34.14
2017-06-22T08:46:29.628Z,34.37
2017-06-22T08:48:58.715Z,34.44
2017-06-22T08:51:27.767Z,34.58
2017-06-22T08:53:56.839Z,34.76
2017-06-22T08:56:25.932Z,34.88
2017-06-22T08:58:54.996Z,35.02
2017-06-22T09:01:24.099Z,35.12
2017-06-22T09:03:53.156Z,35.21
2017-06-22T09:06:23.856Z,35.41
2017-06-22T09:08:52.908Z,35.56
2017-06-22T09:11:22.227Z,35.55
2017-06-22T09:13:51.335Z,35.65
2017-06-22T09:16:20.524Z,35.72
2017-06-22T09:18:49.592Z,35.86
2017-06-22T09:21:18.655Z,35.97
2017-06-22T09:23:47.717Z,36.13
2017-06-22T09:26:16.779Z,36.23
2017-06-22T09:28:45.835Z,36.41
2017-06-22T09:31:14.921Z,36.51
2017-06-22T09:33:43.980Z,36.55
2017-06-22T09:36:13.036Z,36.57
2017-06-22T09:38:43.116Z,36.52
2017-06-22T09:41:12.175Z,36.24
2017-06-22T09:43:41.212Z,36.11
2017-06-22T09:46:10.509Z,36.06
2017-06-22T09:48:39.568Z,36.09
2017-06-22T09:51:08.709Z,36.02
2017-06-22T09:53:37.736Z,35.82
2017-06-22T09:56:06.824Z,35.82
2017-06-22T09:58:35.934Z,35.75
2017-06-22T10:01:04.979Z,35.69
2017-06-22T10:03:34.064Z,35.77
2017-06-22T10:06:03.123Z,35.99
2017-06-22T10:08:32.184Z,36.28
2017-06-22T10:11:01.270Z,36.55
2017-06-22T10:13:30.328Z,36.49
2017-06-22T10:15:59.505Z,36.63
2017-06-22T10:18:28.581Z,36.69
2017-06-22T10:20:57.644Z,36.83
2017-06-22T10:23:26.700Z,36.95
2017-06-22T10:25:55.779Z,36.91
2017-06-22T10:28:24.832Z,37.02
2017-06-22T10:30:53.891Z,37.03
2017-06-22T10:33:22.981Z,37.01
2017-06-22T10:35:52.065Z,36.93
2017-06-22T10:38:21.106Z,36.91
2017-06-22T10:40:50.188Z,36.85
2017-06-22T10:43:19.272Z,36.93
2017-06-22T10:45:48.335Z,36.85
2017-06-22T10:48:17.375Z,36.63
2017-06-22T10:50:46.467Z,36.58
2017-06-22T10:53:15.531Z,36.45
2017-06-22T10:55:44.592Z,36.38
2017-06-22T10:58:13.904Z,36.32
2017-06-22T11:00:43.013Z,36.31
2017-06-22T11:03:12.077Z,36.41
2017-06-22T11:05:41.185Z,36.45
2017-06-22T11:08:10.250Z,36.51
2017-06-22T11:10:39.301Z,36.50
2017-06-22T11:13:08.395Z,36.56
2017-06-22T11:15:37.455Z,36.59
2017-06-22T11:18:06.520Z,36.65
2017-06-22T11:20:35.572Z,36.57
2017-06-22T11:23:04.692Z,36.58
2017-06-22T11:25:33.763Z,36.63
2017-06-22T11:28:02.840Z,36.61
2017-06-22T11:30:31.897Z,36.54
2017-06-22T11:33:00.980Z,36.49
2017-06-22T11:35:30.046Z,36.40
2017-06-22T11:37:59.092Z,36.29
2017-06-22T11:40:28.187Z,36.22
2017-06-22T11:42:57.231Z,36.22
2017-06-22T11:45:26.305Z,36.15
2017-06-22T11:47:55.360Z,36.25
2017-06-22T11:50:24.678Z,36.20
2017-06-22T11:52:53.736Z,36.06
2017-06-22T11:55:22.811Z,35.98
2017-06-22T11:57:51.976Z,35.94
2017-06-22T12:00:21.029Z,35.95
2017-06-22T12:02:50.096Z,36.00
2017-06-22T12:05:19.170Z,36.09
2017-06-22T12:07:48.249Z,36.17
2017-06-22T12:10:17.342Z,36.14
2017-06-22T12:12:46.388Z,36.12
2017-06-22T12:15:15.480Z,36.14
2017-06-22T12:17:44.568Z,36.14
2017-06-22T12:20:13.707Z,36.20
2017-06-22T12:22:42.739Z,36.22
2017-06-22T12:25:11.885Z,36.30
2017-06-22T12:27:40.928Z,36.29
2017-06-22T12:30:10.084Z,36.27
2017-06-22T12:32:39.159Z,36.25
2017-06-22T12:35:08.295Z,36.20
2017-06-22T12:37:37.336Z,36.22
2017-06-22T12:40:06.593Z,36.13
2017-06-22T12:42:35.724Z,36.13
2017-06-22T12:45:04.808Z,36.20
2017-06-22T12:47:33.860Z,36.10
2017-06-22T12:50:02.948Z,36.13
2017-06-22T12:52:32.001Z,36.25
2017-06-22T12:55:01.083Z,36.27
2017-06-22T12:57:30.151Z,36.28
2017-06-22T12:59:59.243Z,36.35
2017-06-22T13:02:28.296Z,36.30
2017-06-22T13:04:57.352Z,36.34
2017-06-22T13:07:26.425Z,36.42
2017-06-22T13:09:56.405Z,36.54
2017-06-22T13:12:25.496Z,36.52
2017-06-22T13:14:54.564Z,36.40
2017-06-22T13:17:23.624Z,36.32
2017-06-22T13:19:52.684Z,36.19
2017-06-22T13:22:21.745Z,36.13
2017-06-22T13:24:50.819Z,36.08
2017-06-22T13:27:19.883Z,35.99
2017-06-22T13:29:48.944Z,36.10
2017-06-22T13:32:18.023Z,36.11
2017-06-22T13:34:47.111Z,36.17
2017-06-22T13:37:16.226Z,36.15
2017-06-22T13:39:45.288Z,36.13
2017-06-22T13:42:14.384Z,36.19
2017-06-22T13:44:43.677Z,36.26
2017-06-22T13:47:12.795Z,36.20
2017-06-22T13:49:41.873Z,36.21
2017-06-22T13:52:11.016Z,36.19
2017-06-22T13:54:40.067Z,36.21
2017-06-22T13:57:09.133Z,36.21
2017-06-22T13:59:38.212Z,36.22
2017-06-22T14:02:07.274Z,36.23
2017-06-22T14:04:36.344Z,36.26
2017-06-22T14:07:05.403Z,36.24
2017-06-22T14:09:34.456Z,36.28
2017-06-22T14:12:03.587Z,36.34
2017-06-22T14:14:32.611Z,36.40
2017-06-22T14:17:01.724Z,36.44
2017-06-22T14:19:30.907Z,36.45
2017-06-22T14:21:59.958Z,36.39
2017-06-22T14:27:27.744Z,36.23
2017-06-22T14:29:56.839Z,36.18
2017-06-22T14:32:26.538Z,36.14
2017-06-22T14:34:55.623Z,36.11
2017-06-22T14:37:24.737Z,36.06
2017-06-22T14:39:53.787Z,36.07
2017-06-22T14:42:22.848Z,36.14
2017-06-22T14:44:51.925Z,36.15
2017-06-22T14:47:20.997Z,36.11
2017-06-22T14:49:50.086Z,36.11
2017-06-22T14:52:19.151Z,36.03
2017-06-22T14:54:48.984Z,35.95
2017-06-22T14:57:18.062Z,35.95
2017-06-22T14:59:47.157Z,36.01
2017-06-22T15:02:17.011Z,36.01
2017-06-22T15:04:46.089Z,35.93
2017-06-22T15:07:15.231Z,35.91
2017-06-22T15:09:44.289Z,35.92
2017-06-22T15:12:13.406Z,35.86
2017-06-22T15:14:42.476Z,35.80
2017-06-22T15:17:11.554Z,35.75
2017-06-22T15:19:41.390Z,35.74
2017-06-22T15:22:10.484Z,35.77
2017-06-22T15:24:40.592Z,35.79
2017-06-22T15:27:09.927Z,35.80
2017-06-22T15:29:39.004Z,35.73
2017-06-22T15:32:08.381Z,35.69
2017-06-22T15:34:37.469Z,35.64
2017-06-22T15:37:06.594Z,35.68
2017-06-22T15:39:35.644Z,35.73
2017-06-22T15:42:04.864Z,35.65
2017-06-22T15:44:33.957Z,35.57
2017-06-22T15:47:03.751Z,35.42
2017-06-22T15:49:33.607Z,35.42
2017-06-22T15:52:02.656Z,35.44
2017-06-22T15:54:32.273Z,35.43
2017-06-22T15:57:02.099Z,35.42
2017-06-22T15:59:31.200Z,35.39
2017-06-22T16:02:00.279Z,35.33
2017-06-22T16:04:30.084Z,35.27
2017-06-22T16:06:59.936Z,35.20
2017-06-22T16:09:28.976Z,35.18
2017-06-22T16:11:58.813Z,35.09
2017-06-22T16:14:27.987Z,35.10
2017-06-22T16:16:57.808Z,35.03
2017-06-22T16:19:27.687Z,35.09
2017-06-22T16:21:56.741Z,35.16
2017-06-22T16:24:26.628Z,35.22
2017-06-22T16:26:55.711Z,35.23
2017-06-22T16:29:24.745Z,35.22
2017-06-22T16:31:53.835Z,35.14
2017-06-22T16:34:22.912Z,35.04
2017-06-22T16:36:52.728Z,34.77
2017-06-22T16:39:21.804Z,34.67
2017-06-22T16:41:50.889Z,34.50
2017-06-22T16:44:19.956Z,34.39
2017-06-22T16:46:50.259Z,34.26
2017-06-22T16:49:19.384Z,34.19
2017-06-22T16:51:48.428Z,34.06
2017-06-22T16:54:17.816Z,33.87
2017-06-22T16:56:46.873Z,33.73
2017-06-22T16:59:15.911Z,33.57
2017-06-22T17:01:45.745Z,33.25
2017-06-22T17:04:14.911Z,32.88
2017-06-22T17:06:43.944Z,32.50
2017-06-22T17:09:13.031Z,32.07
2017-06-22T17:11:42.119Z,31.35
2017-06-22T17:14:11.324Z,30.57
2017-06-22T17:16:40.364Z,29.50
2017-06-22T17:19:09.460Z,28.33
2017-06-22T17:21:38.515Z,27.72
2017-06-22T17:24:07.615Z,27.53
2017-06-22T17:26:36.684Z,27.48
2017-06-22T17:29:06.537Z,27.59
2017-06-22T17:31:35.577Z,27.68
2017-06-22T17:34:05.423Z,27.89
2017-06-22T17:36:34.486Z,28.13
2017-06-22T17:39:04.622Z,28.29
2017-06-22T17:41:33.687Z,28.37
2017-06-22T17:44:02.842Z,28.37
2017-06-22T17:46:31.893Z,28.39
2017-06-22T17:49:01.499Z,28.42
2017-06-22T17:51:30.584Z,28.49
2017-06-22T17:53:59.645Z,28.52
2017-06-22T17:56:28.960Z,28.54
2017-06-22T17:58:58.814Z,28.54
2017-06-22T18:01:28.664Z,28.49
2017-06-22T18:03:57.717Z,28.39
2017-06-22T18:06:27.604Z,28.35
2017-06-22T18:08:56.635Z,28.26
2017-06-22T18:11:25.701Z,28.15
2017-06-22T18:13:54.812Z,28.10
2017-06-22T18:16:24.644Z,27.98
2017-06-22T18:18:54.485Z,27.89
2017-06-22T18:21:23.549Z,27.81
2017-06-22T18:23:52.701Z,27.66
2017-06-22T18:26:21.752Z,27.65
2017-06-22T18:28:50.836Z,27.67
2017-06-22T18:31:19.917Z,27.70
2017-06-22T18:33:49.869Z,27.70
2017-06-22T18:36:18.940Z,27.69
2017-06-22T18:38:48.785Z,27.73
2017-06-22T18:41:17.873Z,27.74
2017-06-22T18:43:46.945Z,27.75
2017-06-22T18:46:16.009Z,27.71
2017-06-22T18:48:45.097Z,27.65
2017-06-22T18:51:14.163Z,27.60
2017-06-22T18:53:43.256Z,27.55
2017-06-22T18:56:12.354Z,27.39
2017-06-22T18:58:41.692Z,27.29
2017-06-22T19:01:10.783Z,27.18
2017-06-22T19:03:39.851Z,27.19
2017-06-22T19:06:08.954Z,27.15
2017-06-22T19:08:37.998Z,27.08
2017-06-22T19:11:07.852Z,27.05
2017-06-22T19:13:36.950Z,27.05
2017-06-22T19:16:06.004Z,26.99
2017-06-22T19:18:35.078Z,26.98
2017-06-22T19:21:04.936Z,26.95
2017-06-22T19:23:33.962Z,26.88
2017-06-22T19:26:03.327Z,26.77
2017-06-22T19:28:32.409Z,26.71
2017-06-22T19:31:01.524Z,26.57
2017-06-22T19:33:30.596Z,26.41
2017-06-22T19:36:00.415Z,26.22
2017-06-22T19:38:29.480Z,25.86
2017-06-22T19:40:58.521Z,25.61
2017-06-22T19:43:27.628Z,25.22
2017-06-22T19:45:56.703Z,25.09
2017-06-22T19:48:25.775Z,24.87
2017-06-22T19:50:54.860Z,24.65
2017-06-22T19:53:24.684Z,24.51
2017-06-22T19:55:53.768Z,24.39
2017-06-22T19:58:23.620Z,24.26
2017-06-22T20:00:52.684Z,24.20
2017-06-22T20:03:21.764Z,24.14
2017-06-22T20:05:51.615Z,24.11
2017-06-22T20:08:20.680Z,24.09
2017-06-22T20:10:50.518Z,24.00
2017-06-22T20:13:19.590Z,23.94
2017-06-22T20:15:49.451Z,23.87
2017-06-22T20:18:18.516Z,23.77
2017-06-22T20:20:47.565Z,23.72
2017-06-22T20:23:16.660Z,23.67
2017-06-22T20:25:45.716Z,23.52
2017-06-22T20:28:14.804Z,23.46
2017-06-22T20:30:43.907Z,23.33
2017-06-22T20:33:12.976Z,23.23
2017-06-22T20:35:42.056Z,23.15
2017-06-22T20:38:11.901Z,23.11
2017-06-22T20:40:41.712Z,23.02
2017-06-22T20:43:11.178Z,23.00
2017-06-22T20:45:40.247Z,22.96
2017-06-22T20:48:09.608Z,22.89
2017-06-22T20:50:39.424Z,22.86
2017-06-22T20:53:08.495Z,22.78
2017-06-22T20:55:38.325Z,22.74
2017-06-22T20:58:07.504Z,22.76
2017-06-22T21:00:37.284Z,22.75
2017-06-22T21:03:06.576Z,22.71
2017-06-22T21:05:35.928Z,22.75
2017-06-22T21:08:05.099Z,22.69
2017-06-22T21:10:34.297Z,22.69
2017-06-22T21:13:03.510Z,22.62
2017-06-22T21:15:32.553Z,22.63
2017-06-22T21:18:01.653Z,22.64
2017-06-22T21:20:30.740Z,22.61
2017-06-22T21:23:00.216Z,22.62
2017-06-22T21:25:29.280Z,22.61
2017-06-22T21:27:59.924Z,22.69
2017-06-22T21:30:29.916Z,22.66
2017-06-22T21:32:59.003Z,22.71
2017-06-22T21:35:28.082Z,22.71
2017-06-22T21:37:57.133Z,22.67
2017-06-22T21:40:26.213Z,22.67
2017-06-22T21:42:55.264Z,22.67
2017-06-22T21:45:24.327Z,22.67
2017-06-22T21:47:53.399Z,22.69
2017-06-22T21:50:23.212Z,22.68
2017-06-22T21:52:53.047Z,22.69
2017-06-22T21:55:22.339Z,22.69
2017-06-22T21:57:51.398Z,22.69
2017-06-22T22:00:20.501Z,22.73
2017-06-22T22:02:50.337Z,22.74
2017-06-22T22:05:19.454Z,22.75
2017-06-22T22:07:49.273Z,22.72
2017-06-22T22:10:18.345Z,22.77
2017-06-22T22:12:47.409Z,22.71
2017-06-22T22:15:16.475Z,22.65
2017-06-22T22:17:45.619Z,22.64
2017-06-22T22:20:14.951Z,22.66
2017-06-22T22:22:44.020Z,22.69
2017-06-22T22:25:13.137Z,22.68
2017-06-22T22:27:42.212Z,22.60
2017-06-22T22:30:11.316Z,22.45
2017-06-22T22:32:40.666Z,22.32
2017-06-22T22:35:09.736Z,22.30
2017-06-22T22:37:38.814Z,22.32
2017-06-22T22:40:08.000Z,22.35
2017-06-22T22:42:37.831Z,22.29
2017-06-22T22:45:07.166Z,22.24
2017-06-22T22:47:36.250Z,22.22
2017-06-22T22:50:05.329Z,22.21
2017-06-22T22:52:34.407Z,22.18
2017-06-22T22:55:03.517Z,22.14
2017-06-22T22:57:32.566Z,22.09
2017-06-22T23:00:02.429Z,22.07
2017-06-22T23:02:31.501Z,22.08
2017-06-22T23:05:00.583Z,22.03
2017-06-22T23:07:29.665Z,21.98
2017-06-22T23:09:58.729Z,21.86
2017-06-22T23:12:27.823Z,21.86
2017-06-22T23:14:56.873Z,21.78
2017-06-22T23:17:26.687Z,21.78
2017-06-22T23:19:55.773Z,21.72
2017-06-22T23:22:24.852Z,21.68
2017-06-22T23:24:53.915Z,21.61
2017-06-22T23:27:22.988Z,21.59
2017-06-22T23:29:52.031Z,21.58
2017-06-22T23:32:21.127Z,21.60
2017-06-22T23:34:50.191Z,21.55
2017-06-22T23:37:19.251Z,21.44
2017-06-22T23:39:48.324Z,21.40
2017-06-22T23:42:18.156Z,21.33
2017-06-22T23:44:47.275Z,21.32
2017-06-22T23:47:16.704Z,21.29
2017-06-22T23:49:45.770Z,21.19
2017-06-22T23:52:14.909Z,21.18
2017-06-22T23:54:43.980Z,21.18
2017-06-22T23:57:13.085Z,21.18
2017-06-22T23:59:42.174Z,21.19
